Time;durP1;ratioP1;P1;durP2;ratioP2;P2;SDS_P1;SDS_P2;PMS_P1;PMS_P2;Temp;Humidity;BMP_temperature;BMP_pressure;BME280_temperature;BME280_humidity;BME280_pressure;Samples;Min_cycle;Max_cycle;Signal;HPM_P1;HPM_P2
2023/05/20 00:00:32;;;;;;;2.80;1.83;;;18.90;54.40;;;;;;5012360;28;20471;-81
2023/05/20 00:02:59;;;;;;;2.15;1.48;;;18.80;54.30;;;;;;4996549;28;20033;-81
2023/05/20 00:05:25;;;;;;;3.45;1.73;;;18.80;54.40;;;;;;5011955;28;20137;-80
2023/05/20 00:07:51;;;;;;;2.50;1.58;;;18.80;54.40;;;;;;5012206;28;20080;-80
2023/05/20 00:10:17;;;;;;;2.35;1.70;;;18.70;54.40;;;;;;5028635;28;20037;-81
2023/05/20 00:12:43;;;;;;;2.28;1.55;;;18.70;54.50;;;;;;5012184;28;20026;-80
2023/05/20 00:15:10;;;;;;;2.90;1.70;;;18.70;54.50;;;;;;4995669;28;20045;-80
2023/05/20 00:17:37;;;;;;;3.80;1.73;;;18.70;54.60;;;;;;5012332;28;20018;-80
2023/05/20 00:20:04;;;;;;;2.55;1.60;;;18.60;54.60;;;;;;5012148;28;20081;-81
2023/05/20 00:22:30;;;;;;;2.53;1.63;;;18.60;54.60;;;;;;4995703;28;20026;-81
2023/05/20 00:24:56;;;;;;;2.40;1.60;;;18.60;54.70;;;;;;5011725;28;20042;-80
2023/05/20 00:27:22;;;;;;;3.95;1.92;;;18.50;54.60;;;;;;4982549;28;20121;-81
2023/05/20 00:29:47;;;;;;;2.95;1.67;;;18.50;54.70;;;;;;5016050;28;20129;-81
2023/05/20 00:32:13;;;;;;;2.85;1.50;;;18.50;54.70;;;;;;5015734;28;20414;-80
2023/05/20 00:34:39;;;;;;;1.50;1.40;;;18.50;54.80;;;;;;5017488;28;20029;-81
2023/05/20 00:37:05;;;;;;;3.08;1.77;;;18.40;54.80;;;;;;5016632;28;20053;-80
2023/05/20 00:39:31;;;;;;;2.35;1.63;;;18.40;54.80;;;;;;5032314;28;20065;-81
2023/05/20 00:42:01;;;;;;;2.58;1.67;;;18.40;54.80;;;;;;5015485;28;20057;-80
2023/05/20 00:44:27;;;;;;;2.55;1.60;;;18.40;54.90;;;;;;5016502;28;20597;-81
2023/05/20 00:46:54;;;;;;;2.97;1.52;;;18.30;54.90;;;;;;4999212;28;20030;-80
2023/05/20 00:49:21;;;;;;;2.22;1.60;;;18.30;54.90;;;;;;5015681;28;20026;-80
2023/05/20 00:51:47;;;;;;;2.95;1.60;;;18.30;55.00;;;;;;5015716;28;20133;-80
2023/05/20 00:54:13;;;;;;;2.50;1.67;;;18.20;54.90;;;;;;4999307;28;20116;-80
2023/05/20 00:56:40;;;;;;;3.55;1.88;;;18.20;55.00;;;;;;5015618;28;20026;-79
2023/05/20 00:59:06;;;;;;;2.55;1.67;;;18.20;55.00;;;;;;5032160;28;20122;-81
2023/05/20 01:01:32;;;;;;;2.85;1.70;;;18.20;55.10;;;;;;5016557;28;20120;-80
2023/05/20 01:03:58;;;;;;;2.38;1.70;;;18.20;55.10;;;;;;5016214;28;20471;-80
2023/05/20 01:06:24;;;;;;;2.13;1.60;;;18.10;55.10;;;;;;5048744;28;20042;-81
2023/05/20 01:08:50;;;;;;;3.28;1.90;;;18.10;55.10;;;;;;5015388;28;20080;-81
2023/05/20 01:11:28;;;;;;;2.30;1.60;;;18.10;55.20;;;;;;4999856;28;20030;-81
2023/05/20 01:14:00;;;;;;;3.17;1.90;;;18.10;55.30;;;;;;5031274;28;20030;-79
2023/05/20 01:16:27;;;;;;;2.47;1.65;;;18.10;55.30;;;;;;5015961;28;20455;-80
2023/05/20 01:18:56;;;;;;;2.30;1.77;;;18.00;55.30;;;;;;5015232;28;20032;-80
2023/05/20 01:21:22;;;;;;;2.92;1.67;;;18.00;55.30;;;;;;5031687;28;20084;-80
2023/05/20 01:23:48;;;;;;;1.48;1.38;;;18.00;55.40;;;;;;5031776;28;20084;-80
2023/05/20 01:26:14;;;;;;;3.45;1.90;;;18.00;55.40;;;;;;5047572;28;20508;-80
2023/05/20 01:28:42;;;;;;;2.97;1.70;;;17.90;55.40;;;;;;4999165;28;20037;-81
2023/05/20 01:31:26;;;;;;;1.85;1.45;;;17.90;55.50;;;;;;5048237;28;20518;-81
2023/05/20 01:33:56;;;;;;;2.63;1.73;;;17.90;55.50;;;;;;5048398;28;20030;-80
2023/05/20 01:36:23;;;;;;;2.15;1.63;;;17.90;55.60;;;;;;5015818;28;20092;-80
2023/05/20 01:38:50;;;;;;;3.22;1.85;;;17.80;55.50;;;;;;5030388;28;20474;-81
2023/05/20 01:41:17;;;;;;;3.20;1.80;;;17.80;55.50;;;;;;5015100;28;20034;-82
2023/05/20 01:43:43;;;;;;;2.75;1.90;;;17.80;55.60;;;;;;4999586;28;20026;-80
2023/05/20 01:46:09;;;;;;;2.15;1.70;;;17.80;55.70;;;;;;4999605;28;20064;-81
2023/05/20 01:48:35;;;;;;;2.20;1.80;;;17.70;55.60;;;;;;5015295;28;20477;-79
2023/05/20 01:51:01;;;;;;;1.58;1.48;;;17.70;55.70;;;;;;5014422;28;20405;-80
2023/05/20 01:53:28;;;;;;;2.28;1.65;;;17.70;55.70;;;;;;4998332;28;20103;-79
2023/05/20 01:55:54;;;;;;;3.20;1.95;;;17.70;55.70;;;;;;5014535;28;20038;-81
2023/05/20 01:58:19;;;;;;;1.70;1.60;;;17.70;55.80;;;;;;5015225;28;20348;-81
2023/05/20 02:00:45;;;;;;;2.47;1.80;;;17.70;55.80;;;;;;4998136;28;20026;-80
2023/05/20 02:03:11;;;;;;;2.17;1.70;;;17.60;55.80;;;;;;4997915;28;20030;-80
2023/05/20 02:05:37;;;;;;;3.83;2.08;;;17.60;55.80;;;;;;5014304;28;20042;-80
2023/05/20 02:08:04;;;;;;;2.95;1.92;;;17.60;55.90;;;;;;4982562;28;20427;-80
2023/05/20 02:10:30;;;;;;;3.60;2.30;;;17.60;55.90;;;;;;4997851;28;20065;-80
2023/05/20 02:12:56;;;;;;;3.05;2.15;;;17.60;56.00;;;;;;5014102;28;20034;-81
2023/05/20 02:15:22;;;;;;;2.20;1.77;;;17.50;56.00;;;;;;5046944;28;20030;-80
2023/05/20 02:17:48;;;;;;;2.67;1.88;;;17.50;56.00;;;;;;5014028;28;20074;-80
2023/05/20 02:20:15;;;;;;;2.15;1.83;;;17.50;56.00;;;;;;4997660;28;20029;-80
2023/05/20 02:22:40;;;;;;;3.15;1.67;;;17.50;56.10;;;;;;5013822;28;20034;-76
2023/05/20 02:25:07;;;;;;;3.78;2.20;;;17.50;56.10;;;;;;5013706;28;20037;-78
2023/05/20 02:27:33;;;;;;;3.75;2.10;;;17.50;56.20;;;;;;5013667;28;20044;-80
2023/05/20 02:29:59;;;;;;;2.95;1.88;;;17.40;56.10;;;;;;4998104;28;20481;-78
2023/05/20 02:32:27;;;;;;;2.22;1.90;;;17.40;56.10;;;;;;5046361;28;20038;-81
2023/05/20 02:34:55;;;;;;;4.63;2.00;;;17.40;56.20;;;;;;5013596;28;20102;-77
2023/05/20 02:37:21;;;;;;;2.38;1.77;;;17.40;56.30;;;;;;5013580;28;20036;-80
2023/05/20 02:39:47;;;;;;;2.80;1.92;;;17.30;56.30;;;;;;5013501;28;20101;-78
2023/05/20 02:42:13;;;;;;;2.25;1.65;;;17.30;56.30;;;;;;5013852;28;20038;-77
2023/05/20 02:44:40;;;;;;;2.00;1.80;;;17.30;56.30;;;;;;5013104;28;20092;-77
2023/05/20 02:47:06;;;;;;;2.90;1.92;;;17.30;56.40;;;;;;5013407;28;20038;-78
2023/05/20 02:49:31;;;;;;;2.95;1.80;;;17.30;56.40;;;;;;5046953;28;20360;-78
2023/05/20 02:51:57;;;;;;;2.88;1.83;;;17.30;56.50;;;;;;5045996;28;20053;-78
2023/05/20 02:54:23;;;;;;;2.15;1.77;;;17.20;56.50;;;;;;5013276;28;20071;-77
2023/05/20 02:56:49;;;;;;;2.10;1.55;;;17.20;56.50;;;;;;5013277;28;20099;-78
2023/05/20 02:59:15;;;;;;;3.20;1.90;;;17.20;56.50;;;;;;5013253;28;20037;-77
2023/05/20 03:01:41;;;;;;;2.47;1.80;;;17.20;56.60;;;;;;5013230;28;20088;-77
2023/05/20 03:04:07;;;;;;;2.90;1.80;;;17.20;56.60;;;;;;4996758;28;20083;-78
2023/05/20 03:06:33;;;;;;;2.75;1.88;;;17.20;56.90;;;;;;5046879;28;20429;-78
2023/05/20 03:09:00;;;;;;;3.13;2.10;;;17.20;56.70;;;;;;5029497;28;20033;-78
2023/05/20 03:11:26;;;;;;;2.30;1.85;;;17.10;56.70;;;;;;5013210;28;20050;-77
2023/05/20 03:13:52;;;;;;;2.75;2.00;;;17.10;56.70;;;;;;5012694;28;20034;-77
2023/05/20 03:16:17;;;;;;;2.28;1.88;;;17.10;56.70;;;;;;5029546;28;20037;-79
2023/05/20 03:18:45;;;;;;;3.88;1.67;;;17.10;56.80;;;;;;4996257;28;20497;-77
2023/05/20 03:21:11;;;;;;;3.65;2.10;;;17.10;56.80;;;;;;4996752;28;20030;-78
2023/05/20 03:23:37;;;;;;;3.17;1.95;;;17.00;57.40;;;;;;5029417;28;20029;-78
2023/05/20 03:26:05;;;;;;;3.28;1.80;;;17.00;56.80;;;;;;4996681;28;20133;-77
2023/05/20 03:28:32;;;;;;;3.55;2.30;;;17.00;56.80;;;;;;4981036;28;20034;-79
2023/05/20 03:30:57;;;;;;;3.00;1.80;;;17.00;56.90;;;;;;5046266;28;20525;-81
2023/05/20 03:33:25;;;;;;;2.70;1.90;;;17.00;56.90;;;;;;5012327;28;20030;-78
2023/05/20 03:35:51;;;;;;;1.85;1.70;;;17.00;56.90;;;;;;5012984;28;20042;-77
2023/05/20 03:38:17;;;;;;;3.20;2.17;;;16.90;56.90;;;;;;5012956;28;20053;-78
2023/05/20 03:40:43;;;;;;;2.78;1.90;;;16.90;57.00;;;;;;5013313;28;20034;-77
2023/05/20 03:43:08;;;;;;;3.45;1.80;;;16.90;57.00;;;;;;4997023;28;20033;-76
2023/05/20 03:45:34;;;;;;;2.72;2.03;;;16.90;57.00;;;;;;5045384;28;20045;-78
2023/05/20 03:48:05;;;;;;;2.47;1.77;;;16.90;57.00;;;;;;4997223;28;20037;-77
2023/05/20 03:50:33;;;;;;;3.28;2.10;;;16.80;57.00;;;;;;5013021;28;20212;-78
2023/05/20 03:53:00;;;;;;;2.47;1.85;;;16.80;57.10;;;;;;5046304;28;20033;-77
2023/05/20 03:55:26;;;;;;;3.42;2.08;;;16.80;57.10;;;;;;5013228;28;20033;-77
2023/05/20 03:57:53;;;;;;;3.00;1.75;;;16.80;57.20;;;;;;5012639;28;20030;-77
2023/05/20 04:00:19;;;;;;;2.47;1.63;;;16.80;57.20;;;;;;5012980;28;20075;-77
2023/05/20 04:02:44;;;;;;;1.88;1.70;;;16.80;57.90;;;;;;5012431;28;20038;-79
2023/05/20 04:05:14;;;;;;;3.25;2.10;;;16.70;57.20;;;;;;5028194;28;20112;-77
2023/05/20 04:07:40;;;;;;;2.88;2.00;;;16.70;57.20;;;;;;5012380;28;20061;-77
2023/05/20 04:10:08;;;;;;;2.53;1.80;;;16.70;57.20;;;;;;5045290;28;20056;-78
2023/05/20 04:12:36;;;;;;;3.90;2.08;;;16.70;57.30;;;;;;5013185;28;20030;-77
2023/05/20 04:15:02;;;;;;;2.67;1.90;;;16.70;57.40;;;;;;5028511;28;20386;-77
2023/05/20 04:17:36;;;;;;;2.90;1.90;;;16.70;57.40;;;;;;4996946;28;20014;-78
2023/05/20 04:20:04;;;;;;;2.28;1.83;;;16.60;57.40;;;;;;5012124;28;20133;-77
2023/05/20 04:22:30;;;;;;;2.80;1.88;;;16.60;57.40;;;;;;5012764;28;20514;-78
2023/05/20 04:24:56;;;;;;;2.95;1.92;;;16.60;57.40;;;;;;5028323;28;20049;-77
2023/05/20 04:27:22;;;;;;;2.80;1.92;;;16.60;57.50;;;;;;5012498;28;20041;-77
2023/05/20 04:29:48;;;;;;;2.58;1.90;;;16.60;57.50;;;;;;5013260;28;20549;-77
2023/05/20 04:32:19;;;;;;;3.65;1.90;;;16.50;57.50;;;;;;4996322;28;20026;-76
2023/05/20 04:34:46;;;;;;;2.03;1.73;;;16.50;57.60;;;;;;5012976;28;20038;-77
2023/05/20 04:37:12;;;;;;;2.97;2.00;;;16.50;57.60;;;;;;5045068;28;20018;-77
2023/05/20 04:39:39;;;;;;;2.90;1.77;;;16.50;57.60;;;;;;5044969;28;20065;-76
2023/05/20 04:42:07;;;;;;;2.55;1.90;;;16.40;57.60;;;;;;4995436;28;20054;-77
2023/05/20 04:44:33;;;;;;;1.95;1.75;;;16.40;57.60;;;;;;4995492;28;20111;-76
2023/05/20 04:46:59;;;;;;;3.50;2.17;;;16.40;57.70;;;;;;5012565;28;20061;-76
2023/05/20 04:49:25;;;;;;;2.67;1.83;;;16.40;57.70;;;;;;5012602;28;20513;-76
2023/05/20 04:51:54;;;;;;;2.20;1.70;;;16.40;57.80;;;;;;5027696;28;20119;-77
2023/05/20 04:54:20;;;;;;;2.67;1.90;;;16.40;57.80;;;;;;5011788;28;20470;-78
2023/05/20 04:56:46;;;;;;;2.17;1.55;;;16.30;57.80;;;;;;5028526;28;20061;-75
2023/05/20 04:59:13;;;;;;;2.85;2.00;;;16.40;57.90;;;;;;5044822;28;20515;-77
2023/05/20 05:01:39;;;;;;;2.92;1.95;;;16.40;57.90;;;;;;5012076;28;20037;-78
2023/05/20 05:04:05;;;;;;;1.80;1.63;;;16.30;57.90;;;;;;4995567;28;20034;-77
2023/05/20 05:06:31;;;;;;;3.50;2.00;;;16.30;58.00;;;;;;5027955;28;20062;-76
2023/05/20 05:08:58;;;;;;;2.55;1.80;;;16.30;58.00;;;;;;4995774;28;20053;-80
2023/05/20 05:11:25;;;;;;;2.20;1.67;;;16.30;58.00;;;;;;5012164;28;20104;-78
2023/05/20 05:13:51;;;;;;;2.30;1.63;;;16.30;58.10;;;;;;4997013;28;20030;-77
2023/05/20 05:16:18;;;;;;;2.40;1.98;;;16.30;58.10;;;;;;5015418;28;20583;-78
2023/05/20 05:18:43;;;;;;;1.92;1.75;;;16.20;58.00;;;;;;4998846;28;20026;-77
2023/05/20 05:21:09;;;;;;;2.55;1.70;;;16.30;58.10;;;;;;5015123;28;20034;-76
2023/05/20 05:23:35;;;;;;;2.83;1.90;;;16.20;58.40;;;;;;5048759;28;20458;-80
2023/05/20 05:26:01;;;;;;;2.70;1.90;;;16.20;58.10;;;;;;5015099;28;20550;-76
2023/05/20 05:28:27;;;;;;;3.65;2.05;;;16.20;58.20;;;;;;5048304;28;20482;-76
2023/05/20 05:30:55;;;;;;;2.45;1.65;;;16.20;58.20;;;;;;5031358;28;20022;-77
2023/05/20 05:33:21;;;;;;;3.08;1.67;;;16.20;58.10;;;;;;5031277;28;20021;-78
2023/05/20 05:35:47;;;;;;;2.95;2.10;;;16.20;58.10;;;;;;5031330;28;20041;-76
2023/05/20 05:38:13;;;;;;;1.65;1.55;;;16.20;58.20;;;;;;5015645;28;20375;-76
2023/05/20 05:40:39;;;;;;;2.05;1.73;;;16.20;58.20;;;;;;5047784;28;20045;-78
2023/05/20 05:43:05;;;;;;;2.70;1.70;;;16.20;58.30;;;;;;5031000;28;20041;-78
2023/05/20 05:45:32;;;;;;;2.22;1.67;;;16.20;58.30;;;;;;5047721;28;20038;-77
2023/05/20 05:47:57;;;;;;;3.72;1.83;;;16.20;58.30;;;;;;5047686;28;20095;-78
2023/05/20 05:50:24;;;;;;;1.73;1.63;;;16.20;58.30;;;;;;5014519;28;20036;-77
2023/05/20 05:52:50;;;;;;;2.28;1.85;;;16.20;59.00;;;;;;5014424;28;20173;-79
2023/05/20 05:55:17;;;;;;;2.42;1.70;;;16.20;58.30;;;;;;5016047;28;20108;-78
2023/05/20 05:57:43;;;;;;;2.17;1.77;;;16.20;58.40;;;;;;4998431;28;20029;-77
2023/05/20 06:00:12;;;;;;;1.90;1.67;;;16.20;58.30;;;;;;5031350;28;20037;-77
2023/05/20 06:02:46;;;;;;;;;;;16.20;58.40;;;;;;5015355;28;20026;-76
2023/05/20 06:05:20;;;;;;;2.67;1.80;;;16.20;58.30;;;;;;5015575;28;20350;-77
2023/05/20 06:07:46;;;;;;;2.95;1.90;;;16.20;58.20;;;;;;5013979;28;20041;-77
2023/05/20 06:10:12;;;;;;;2.95;1.67;;;16.20;58.30;;;;;;5014246;28;20060;-76
2023/05/20 06:12:38;;;;;;;2.10;1.83;;;16.20;58.40;;;;;;5014249;28;20029;-79
2023/05/20 06:15:05;;;;;;;2.38;1.65;;;16.20;58.40;;;;;;4997812;28;20076;-77
2023/05/20 06:17:31;;;;;;;2.42;1.73;;;16.20;58.50;;;;;;5047748;28;20041;-79
2023/05/20 06:19:57;;;;;;;2.78;1.60;;;16.20;58.50;;;;;;5013673;28;20022;-78
2023/05/20 06:22:23;;;;;;;2.30;1.80;;;16.20;58.50;;;;;;5013835;28;20124;-77
2023/05/20 06:24:49;;;;;;;2.78;1.95;;;16.20;58.40;;;;;;5047274;28;20065;-79
2023/05/20 06:27:15;;;;;;;1.85;1.67;;;16.20;58.50;;;;;;5046952;28;20443;-77
2023/05/20 06:29:41;;;;;;;2.03;1.67;;;16.20;58.50;;;;;;5046771;28;20064;-78
2023/05/20 06:32:07;;;;;;;2.65;1.90;;;16.30;58.60;;;;;;4997468;28;20030;-77
2023/05/20 06:34:34;;;;;;;2.60;1.88;;;16.30;58.60;;;;;;5046757;28;20033;-77
2023/05/20 06:37:00;;;;;;;2.70;1.80;;;16.30;58.60;;;;;;5046137;28;20034;-81
2023/05/20 06:39:25;;;;;;;2.22;1.77;;;16.30;58.60;;;;;;5013430;28;20076;-82
2023/05/20 06:41:51;;;;;;;3.38;1.70;;;16.30;58.70;;;;;;4997262;28;20026;-81
2023/05/20 06:44:26;;;;;;;;;;;16.20;58.70;;;;;;5015403;28;20073;-82
2023/05/20 06:47:00;;;;;;;1.88;1.55;;;16.30;58.60;;;;;;4997881;28;19971;-80
2023/05/20 06:49:26;;;;;;;1.88;1.70;;;16.30;58.60;;;;;;5013405;28;20033;-79
2023/05/20 06:51:51;;;;;;;2.25;1.58;;;16.30;58.60;;;;;;4996823;28;20058;-80
2023/05/20 06:54:17;;;;;;;2.92;1.90;;;16.30;58.70;;;;;;5029635;28;20026;-79
2023/05/20 06:56:44;;;;;;;2.13;1.60;;;16.30;58.70;;;;;;5046249;28;20132;-78
2023/05/20 06:59:10;;;;;;;2.35;1.73;;;16.30;58.80;;;;;;5045670;28;20131;-83
2023/05/20 07:01:36;;;;;;;1.85;1.55;;;16.30;58.80;;;;;;4997660;28;20022;-78
2023/05/20 07:04:03;;;;;;;2.53;2.00;;;16.40;58.80;;;;;;5013250;28;20440;-77
2023/05/20 07:06:30;;;;;;;2.55;1.85;;;16.40;58.80;;;;;;4997143;28;20029;-76
2023/05/20 07:08:57;;;;;;;2.90;1.73;;;16.40;58.80;;;;;;5013480;28;20042;-77
2023/05/20 07:11:23;;;;;;;2.25;1.90;;;16.40;58.80;;;;;;5029599;28;20026;-82
2023/05/20 07:13:49;;;;;;;2.05;1.73;;;16.50;58.80;;;;;;4996656;28;20030;-79
2023/05/20 07:16:15;;;;;;;2.67;1.70;;;16.50;58.80;;;;;;5029457;28;20014;-81
2023/05/20 07:18:45;;;;;;;2.60;1.75;;;16.50;58.80;;;;;;5013829;28;20471;-80
2023/05/20 07:21:11;;;;;;;1.83;1.65;;;16.50;58.80;;;;;;5013913;28;20072;-78
2023/05/20 07:24:06;;;;;;;5.28;1.63;;;16.50;58.80;;;;;;5017402;28;20050;-79
2023/05/20 07:26:35;;;;;;;1.65;1.50;;;16.50;58.70;;;;;;4996559;28;20048;-77
2023/05/20 07:29:02;;;;;;;2.40;1.77;;;16.50;58.70;;;;;;5046366;28;20423;-79
2023/05/20 07:31:29;;;;;;;2.53;1.80;;;16.60;58.80;;;;;;5012979;28;20052;-78
2023/05/20 07:33:55;;;;;;;2.22;1.75;;;16.60;58.70;;;;;;5029090;28;20049;-76
2023/05/20 07:36:21;;;;;;;1.88;1.50;;;16.60;58.70;;;;;;5012072;28;20033;-78
2023/05/20 07:38:49;;;;;;;1.60;1.50;;;16.70;58.70;;;;;;4997154;28;20084;-80
2023/05/20 07:41:16;;;;;;;2.17;1.80;;;16.70;58.60;;;;;;4996602;28;20454;-78
2023/05/20 07:43:42;;;;;;;2.65;1.80;;;16.80;58.60;;;;;;4996160;28;20072;-79
2023/05/20 07:46:08;;;;;;;2.55;1.75;;;16.80;58.60;;;;;;4996084;28;20069;-79
2023/05/20 07:48:34;;;;;;;1.60;1.50;;;16.80;58.50;;;;;;5012178;28;20375;-78
2023/05/20 07:51:00;;;;;;;2.15;1.80;;;16.90;58.50;;;;;;5012181;28;20069;-79
2023/05/20 07:53:27;;;;;;;1.70;1.50;;;17.00;58.50;;;;;;4996357;28;20052;-78
2023/05/20 07:55:53;;;;;;;2.60;1.70;;;17.00;58.40;;;;;;5012687;28;20498;-79
2023/05/20 07:58:19;;;;;;;2.47;1.85;;;17.10;58.40;;;;;;5028619;28;20522;-79
2023/05/20 08:00:45;;;;;;;2.20;1.70;;;17.10;58.30;;;;;;5013606;28;20114;-79
2023/05/20 08:03:11;;;;;;;2.67;1.83;;;17.20;58.30;;;;;;5028436;28;20021;-79
2023/05/20 08:06:06;;;;;;;2.53;1.98;;;17.20;58.20;;;;;;5012184;28;20068;-77
2023/05/20 08:08:32;;;;;;;2.17;1.70;;;17.30;58.10;;;;;;5012265;28;20133;-78
2023/05/20 08:11:06;;;;;;;2.40;1.70;;;17.40;58.00;;;;;;4996982;28;20026;-79
2023/05/20 08:13:32;;;;;;;1.75;1.50;;;17.40;58.00;;;;;;5045758;28;20533;-79
2023/05/20 08:16:00;;;;;;;2.47;1.83;;;17.50;57.90;;;;;;5012345;28;20038;-79
2023/05/20 08:18:28;;;;;;;3.00;1.95;;;17.60;57.90;;;;;;5012646;28;20034;-78
2023/05/20 08:20:54;;;;;;;2.58;1.70;;;17.70;57.90;;;;;;5012760;28;20026;-78
2023/05/20 08:23:20;;;;;;;2.10;1.60;;;17.70;57.80;;;;;;5012035;28;20112;-79
2023/05/20 08:25:47;;;;;;;2.42;1.90;;;17.80;57.70;;;;;;5012014;28;20050;-78
2023/05/20 08:28:13;;;;;;;1.88;1.60;;;17.90;57.70;;;;;;4995893;28;20069;-77
2023/05/20 08:30:40;;;;;;;2.45;1.70;;;18.00;57.60;;;;;;5012787;28;20320;-80
2023/05/20 08:33:06;;;;;;;2.33;1.85;;;18.00;57.50;;;;;;4995823;28;20033;-79
2023/05/20 08:35:32;;;;;;;1.95;1.70;;;18.10;57.50;;;;;;5012215;28;20099;-79
2023/05/20 08:37:58;;;;;;;3.05;2.00;;;18.20;57.50;;;;;;5013238;28;20038;-78
2023/05/20 08:40:26;;;;;;;2.33;1.80;;;18.20;57.40;;;;;;5011723;28;20034;-78
2023/05/20 08:42:52;;;;;;;2.58;1.70;;;18.30;57.30;;;;;;4995799;28;20026;-78
2023/05/20 08:45:20;;;;;;;2.85;1.83;;;18.40;57.20;;;;;;5028375;28;20085;-78
2023/05/20 08:47:47;;;;;;;2.97;1.90;;;18.50;57.20;;;;;;5031134;28;20034;-79
2023/05/20 08:50:13;;;;;;;2.25;1.58;;;18.50;57.10;;;;;;5031727;28;20037;-78
2023/05/20 08:52:47;;;;;;;2.50;1.80;;;18.60;57.10;;;;;;5015745;28;20080;-79
2023/05/20 08:55:36;;;;;;;2.53;1.73;;;18.70;57.10;;;;;;5032750;28;20367;-79
2023/05/20 08:58:02;;;;;;;2.40;1.80;;;18.80;57.00;;;;;;4999901;28;20281;-77
2023/05/20 09:00:28;;;;;;;1.65;1.48;;;18.90;56.90;;;;;;5031622;28;20041;-80
2023/05/20 09:02:55;;;;;;;2.03;1.48;;;19.00;56.80;;;;;;5016314;28;20403;-78
2023/05/20 09:05:21;;;;;;;2.33;1.58;;;19.00;56.70;;;;;;5048638;28;20037;-79
2023/05/20 09:07:48;;;;;;;1.80;1.55;;;19.10;56.70;;;;;;5031737;28;20026;-78
2023/05/20 09:10:14;;;;;;;2.75;1.70;;;19.20;56.60;;;;;;4998920;28;20125;-78
2023/05/20 09:12:39;;;;;;;1.85;1.38;;;19.30;56.50;;;;;;5048146;28;20503;-79
2023/05/20 09:15:06;;;;;;;1.90;1.60;;;19.40;56.50;;;;;;5015778;28;20026;-79
2023/05/20 09:17:36;;;;;;;2.00;1.60;;;19.50;56.50;;;;;;5016388;28;20113;-79
2023/05/20 09:20:11;;;;;;;1.90;1.40;;;19.50;56.30;;;;;;5014952;28;20101;-79
2023/05/20 09:22:39;;;;;;;1.52;1.42;;;19.60;56.30;;;;;;5032399;28;20487;-79
2023/05/20 09:25:05;;;;;;;2.30;1.58;;;19.70;56.20;;;;;;5014774;28;20111;-79
2023/05/20 09:27:31;;;;;;;1.92;1.70;;;19.80;56.20;;;;;;5015214;28;20038;-80
2023/05/20 09:29:57;;;;;;;2.45;1.50;;;19.90;56.20;;;;;;5016326;28;20349;-81
2023/05/20 09:32:25;;;;;;;1.50;1.40;;;19.90;56.10;;;;;;5047692;28;20117;-79
2023/05/20 09:34:51;;;;;;;2.30;1.60;;;20.00;56.10;;;;;;4999149;28;20026;-82
2023/05/20 09:37:20;;;;;;;2.33;1.50;;;20.00;56.00;;;;;;5014831;28;20040;-79
2023/05/20 09:39:55;;;;;;;1.65;1.35;;;20.10;55.90;;;;;;5014855;28;20026;-78
2023/05/20 09:42:25;;;;;;;2.40;1.65;;;20.20;55.90;;;;;;5031393;28;20439;-80
2023/05/20 09:44:53;;;;;;;1.70;1.52;;;20.30;55.80;;;;;;5015388;28;20450;-79
2023/05/20 09:47:19;;;;;;;2.33;1.77;;;20.40;55.80;;;;;;5015719;28;20168;-78
2023/05/20 09:49:48;;;;;;;3.55;1.50;;;20.50;55.80;;;;;;5030958;28;20536;-78
2023/05/20 09:52:15;;;;;;;2.13;1.50;;;20.60;55.70;;;;;;5014205;28;20396;-79
2023/05/20 09:54:43;;;;;;;1.98;1.60;;;20.70;55.70;;;;;;5014430;28;20034;-79
2023/05/20 09:57:09;;;;;;;1.73;1.42;;;20.70;55.60;;;;;;5015810;28;20030;-82
2023/05/20 09:59:36;;;;;;;1.77;1.30;;;20.80;55.60;;;;;;5013527;28;20459;-78
2023/05/20 10:02:05;;;;;;;2.33;1.60;;;20.90;55.60;;;;;;5015152;28;20395;-79
2023/05/20 10:04:33;;;;;;;1.50;1.27;;;21.00;55.50;;;;;;5015103;28;20491;-78
2023/05/20 10:06:59;;;;;;;1.98;1.40;;;21.00;55.40;;;;;;5030612;28;20038;-80
2023/05/20 10:09:52;;;;;;;1.40;1.30;;;21.10;55.40;;;;;;5013856;28;20467;-80
2023/05/20 10:12:21;;;;;;;1.67;1.40;;;21.20;55.40;;;;;;5014155;28;20064;-81
2023/05/20 10:14:47;;;;;;;1.98;1.40;;;21.30;55.30;;;;;;5014832;28;20018;-77
2023/05/20 10:17:34;;;;;;;1.85;1.45;;;21.40;55.30;;;;;;5014112;28;20482;-77
2023/05/20 10:20:00;;;;;;;3.55;1.70;;;21.50;55.20;;;;;;5013917;28;20449;-80
2023/05/20 10:22:28;;;;;;;1.33;1.20;;;21.50;55.20;;;;;;4997925;28;20113;-76
2023/05/20 10:25:06;;;;;;;1.88;1.17;;;21.60;55.20;;;;;;5030781;28;20088;-78
2023/05/20 10:27:45;;;;;;;2.10;1.40;;;21.70;55.20;;;;;;5015432;28;20073;-77
2023/05/20 10:30:19;;;;;;;2.03;1.52;;;21.80;55.80;;;;;;5014793;28;20084;-77
2023/05/20 10:32:55;;;;;;;2.13;1.38;;;21.90;55.20;;;;;;5013756;28;20034;-79
2023/05/20 10:35:25;;;;;;;1.60;1.30;;;22.00;55.10;;;;;;5014291;28;20092;-78
2023/05/20 10:37:53;;;;;;;1.55;1.40;;;22.00;55.10;;;;;;5013600;28;20072;-78
2023/05/20 10:40:20;;;;;;;1.92;1.48;;;22.10;55.00;;;;;;5014544;28;20026;-80
2023/05/20 10:42:47;;;;;;;1.40;1.30;;;22.20;55.00;;;;;;5013426;28;20036;-81
2023/05/20 10:45:29;;;;;;;1.58;1.27;;;22.30;55.00;;;;;;5014000;28;20033;-79
2023/05/20 10:47:56;;;;;;;1.20;1.10;;;22.40;55.10;;;;;;5046592;28;20033;-78
2023/05/20 10:50:37;;;;;;;2.10;1.60;;;22.40;54.90;;;;;;5013584;28;20053;-78
2023/05/20 10:53:10;;;;;;;1.73;1.50;;;22.50;54.90;;;;;;5014802;28;20042;-77
2023/05/20 10:55:38;;;;;;;1.77;1.33;;;22.60;54.80;;;;;;5014122;28;20034;-78
2023/05/20 10:58:05;;;;;;;1.42;1.27;;;22.60;54.70;;;;;;5029436;28;20109;-77
2023/05/20 11:00:34;;;;;;;1.90;1.50;;;22.70;54.70;;;;;;5013273;28;20045;-79
2023/05/20 11:03:00;;;;;;;1.33;1.23;;;22.80;54.70;;;;;;5013121;28;20459;-78
2023/05/20 11:05:27;;;;;;;1.48;1.30;;;22.90;54.80;;;;;;5030268;28;20037;-79
2023/05/20 11:08:01;;;;;;;1.40;1.30;;;22.90;54.80;;;;;;5012934;28;20508;-77
2023/05/20 11:10:27;;;;;;;1.58;1.20;;;22.90;54.80;;;;;;5029621;28;20471;-77
2023/05/20 11:12:53;;;;;;;2.65;1.30;;;23.00;54.80;;;;;;5012879;28;20092;-77
2023/05/20 11:15:20;;;;;;;1.73;1.38;;;23.00;54.70;;;;;;5013122;28;20052;-79
2023/05/20 11:18:00;;;;;;;2.10;1.40;;;23.10;54.50;;;;;;5029480;28;20026;-76
2023/05/20 11:20:26;;;;;;;1.60;1.15;;;23.10;54.50;;;;;;5029354;28;20064;-78
2023/05/20 11:22:53;;;;;;;2.70;1.40;;;23.20;54.60;;;;;;5013026;28;20029;-77
2023/05/20 11:25:22;;;;;;;2.03;1.33;;;23.20;54.50;;;;;;5029008;28;20042;-78
2023/05/20 11:27:48;;;;;;;1.48;1.38;;;23.30;54.50;;;;;;5029141;28;20026;-77
2023/05/20 11:30:15;;;;;;;1.80;1.23;;;23.30;54.50;;;;;;5013551;28;20056;-77
2023/05/20 11:32:56;;;;;;;1.63;1.40;;;23.30;54.50;;;;;;5012398;28;20040;-77
2023/05/20 11:35:23;;;;;;;1.30;1.20;;;23.30;54.60;;;;;;5013575;28;20041;-79
2023/05/20 11:38:07;;;;;;;1.30;1.20;;;23.40;54.60;;;;;;5013876;28;20030;-77
2023/05/20 11:40:34;;;;;;;1.30;1.10;;;23.30;54.70;;;;;;5046339;28;20088;-76
2023/05/20 11:43:01;;;;;;;1.33;1.13;;;23.40;54.70;;;;;;5012617;28;20064;-78
2023/05/20 11:45:37;;;;;;;1.52;1.20;;;23.40;54.80;;;;;;5013344;28;20108;-77
2023/05/20 11:48:04;;;;;;;2.47;1.25;;;23.40;54.80;;;;;;5029230;28;20081;-77
2023/05/20 11:50:43;;;;;;;1.30;1.20;;;23.50;55.00;;;;;;5013646;28;20375;-78
2023/05/20 11:53:13;;;;;;;1.55;1.38;;;23.50;54.90;;;;;;5014539;28;20057;-78
2023/05/20 11:55:48;;;;;;;1.30;1.20;;;23.50;54.90;;;;;;5013318;28;20165;-79
2023/05/20 11:58:22;;;;;;;1.38;1.27;;;23.60;55.00;;;;;;5012819;28;20038;-78
2023/05/20 12:00:48;;;;;;;1.87;1.13;;;23.60;54.90;;;;;;5028621;28;20390;-78
2023/05/20 12:03:15;;;;;;;1.73;1.30;;;23.60;54.80;;;;;;4996123;28;20022;-78
2023/05/20 12:05:41;;;;;;;1.65;1.42;;;23.60;54.70;;;;;;5013399;28;20044;-78
2023/05/20 12:08:07;;;;;;;1.35;1.10;;;23.70;54.70;;;;;;5013725;28;20030;-77
2023/05/20 12:10:33;;;;;;;1.25;1.08;;;23.70;54.70;;;;;;5012145;28;20033;-78
2023/05/20 12:12:59;;;;;;;1.40;1.30;;;23.70;54.70;;;;;;5045240;28;20034;-77
2023/05/20 12:15:25;;;;;;;1.48;1.35;;;23.80;54.80;;;;;;5012809;28;20042;-77
2023/05/20 12:17:52;;;;;;;1.95;1.67;;;23.80;54.70;;;;;;5011870;28;20391;-78
2023/05/20 12:20:20;;;;;;;2.42;1.17;;;23.80;54.50;;;;;;5011958;28;20037;-81
2023/05/20 12:22:46;;;;;;;1.20;1.10;;;23.90;54.50;;;;;;5015047;28;20444;-78
2023/05/20 12:25:14;;;;;;;1.48;1.23;;;23.90;54.40;;;;;;5032104;28;20026;-78
2023/05/20 12:27:46;;;;;;;1.23;1.13;;;23.90;54.40;;;;;;5032666;28;20030;-78
2023/05/20 12:30:15;;;;;;;1.38;1.27;;;23.90;54.30;;;;;;5032471;28;20029;-78
2023/05/20 12:32:42;;;;;;;1.58;1.30;;;24.00;54.40;;;;;;5032520;28;20045;-78
2023/05/20 12:35:08;;;;;;;1.33;1.10;;;24.00;54.40;;;;;;5015755;28;20391;-77
2023/05/20 12:37:35;;;;;;;2.05;1.30;;;24.00;54.40;;;;;;5049586;28;20030;-78
2023/05/20 12:40:05;;;;;;;2.30;1.30;;;24.00;54.40;;;;;;5016388;28;20026;-78
2023/05/20 12:42:41;;;;;;;1.45;1.00;;;24.00;54.40;;;;;;5016267;28;20044;-78
2023/05/20 12:45:09;;;;;;;1.50;1.10;;;24.10;54.40;;;;;;5016039;28;20038;-76
2023/05/20 12:47:35;;;;;;;1.88;1.17;;;24.10;54.40;;;;;;5015970;28;20038;-78
2023/05/20 12:50:01;;;;;;;1.88;0.90;;;24.20;54.40;;;;;;4999523;28;20037;-78